sensor_id;sensor_type;location;lat;lon;timestamp;pressure;altitude;pressure_sealevel;temperature;humidity
39729;BME280;25402;42.004;23.088;2023-11-21T00:00:34;97372.69;;;0.84;49.28
39729;BME280;25402;42.004;23.088;2023-11-21T00:03:01;97361.59;;;0.79;49.36
39729;BME280;25402;42.004;23.088;2023-11-21T00:05:29;97369.72;;;0.78;49.48
39729;BME280;25402;42.004;23.088;2023-11-21T00:07:58;97366.25;;;0.66;50.02
39729;BME280;25402;42.004;23.088;2023-11-21T00:10:25;97366.34;;;0.76;49.76
39729;BME280;25402;42.004;23.088;2023-11-21T00:12:52;97368.59;;;0.59;49.41
39729;BME280;25402;42.004;23.088;2023-11-21T00:15:20;97355.31;;;0.48;49.48
39729;BME280;25402;42.004;23.088;2023-11-21T00:17:47;97366.91;;;0.58;48.80
39729;BME280;25402;42.004;23.088;2023-11-21T00:20:15;97376.34;;;0.62;48.86
39729;BME280;25402;42.004;23.088;2023-11-21T00:22:42;97370.66;;;0.56;49.34
39729;BME280;25402;42.004;23.088;2023-11-21T00:25:11;97366.69;;;0.50;49.30
39729;BME280;25402;42.004;23.088;2023-11-21T00:27:41;97372.00;;;0.50;49.33
39729;BME280;25402;42.004;23.088;2023-11-21T00:30:08;97382.66;;;0.50;49.53
39729;BME280;25402;42.004;23.088;2023-11-21T00:32:35;97383.63;;;0.49;49.52
39729;BME280;25402;42.004;23.088;2023-11-21T00:35:03;97380.81;;;0.30;50.05
39729;BME280;25402;42.004;23.088;2023-11-21T00:37:31;97380.41;;;0.35;49.79
39729;BME280;25402;42.004;23.088;2023-11-21T00:39:58;97349.19;;;0.37;49.41
39729;BME280;25402;42.004;23.088;2023-11-21T00:42:26;97365.84;;;0.50;49.53
39729;BME280;25402;42.004;23.088;2023-11-21T00:44:53;97372.25;;;0.47;49.71
39729;BME280;25402;42.004;23.088;2023-11-21T00:47:20;97377.13;;;0.42;50.06
39729;BME280;25402;42.004;23.088;2023-11-21T00:49:48;97384.75;;;0.47;50.08
39729;BME280;25402;42.004;23.088;2023-11-21T00:52:15;97385.44;;;0.49;49.95
39729;BME280;25402;42.004;23.088;2023-11-21T00:54:42;97387.72;;;0.53;49.68
39729;BME280;25402;42.004;23.088;2023-11-21T00:57:10;97391.63;;;0.49;49.95
39729;BME280;25402;42.004;23.088;2023-11-21T00:59:38;97398.44;;;0.42;49.90
39729;BME280;25402;42.004;23.088;2023-11-21T01:02:05;97372.56;;;0.33;49.29
39729;BME280;25402;42.004;23.088;2023-11-21T01:04:35;97381.50;;;0.43;49.21
39729;BME280;25402;42.004;23.088;2023-11-21T01:07:03;97390.06;;;0.47;48.74
39729;BME280;25402;42.004;23.088;2023-11-21T01:09:31;97391.66;;;0.38;49.26
39729;BME280;25402;42.004;23.088;2023-11-21T01:11:58;97375.94;;;0.35;49.69
39729;BME280;25402;42.004;23.088;2023-11-21T01:14:25;97382.22;;;0.45;49.37
39729;BME280;25402;42.004;23.088;2023-11-21T01:16:54;97376.41;;;0.40;49.85
39729;BME280;25402;42.004;23.088;2023-11-21T01:19:21;97371.88;;;0.31;49.97
39729;BME280;25402;42.004;23.088;2023-11-21T01:21:48;97360.63;;;0.27;49.82
39729;BME280;25402;42.004;23.088;2023-11-21T01:24:14;97374.25;;;0.34;49.78
39729;BME280;25402;42.004;23.088;2023-11-21T01:26:41;97382.94;;;0.36;49.54
39729;BME280;25402;42.004;23.088;2023-11-21T01:29:09;97354.03;;;0.11;49.95
39729;BME280;25402;42.004;23.088;2023-11-21T01:31:36;97376.72;;;0.26;49.75
39729;BME280;25402;42.004;23.088;2023-11-21T01:34:04;97377.88;;;0.33;49.62
39729;BME280;25402;42.004;23.088;2023-11-21T01:36:31;97371.75;;;0.21;49.90
39729;BME280;25402;42.004;23.088;2023-11-21T01:38:59;97370.53;;;0.25;49.84
39729;BME280;25402;42.004;23.088;2023-11-21T01:41:26;97359.53;;;0.30;49.67
39729;BME280;25402;42.004;23.088;2023-11-21T01:43:54;97360.94;;;0.34;49.39
39729;BME280;25402;42.004;23.088;2023-11-21T01:46:21;97360.22;;;0.32;49.56
39729;BME280;25402;42.004;23.088;2023-11-21T01:48:49;97353.00;;;0.23;49.58
39729;BME280;25402;42.004;23.088;2023-11-21T01:51:18;97363.47;;;0.36;49.16
39729;BME280;25402;42.004;23.088;2023-11-21T01:53:45;97367.34;;;0.32;49.63
39729;BME280;25402;42.004;23.088;2023-11-21T01:56:13;97361.34;;;0.18;49.69
39729;BME280;25402;42.004;23.088;2023-11-21T01:58:41;97357.41;;;0.13;49.37
39729;BME280;25402;42.004;23.088;2023-11-21T02:01:09;97361.34;;;0.18;49.10
39729;BME280;25402;42.004;23.088;2023-11-21T02:03:36;97348.19;;;0.17;49.34
39729;BME280;25402;42.004;23.088;2023-11-21T02:06:04;97352.81;;;0.04;49.78
39729;BME280;25402;42.004;23.088;2023-11-21T02:08:33;97340.59;;;0.01;49.78
39729;BME280;25402;42.004;23.088;2023-11-21T02:11:03;97339.50;;;0.15;49.52
39729;BME280;25402;42.004;23.088;2023-11-21T02:13:30;97329.84;;;0.03;49.56
39729;BME280;25402;42.004;23.088;2023-11-21T02:15:58;97343.38;;;0.11;49.47
39729;BME280;25402;42.004;23.088;2023-11-21T02:18:25;97341.16;;;0.16;49.69
39729;BME280;25402;42.004;23.088;2023-11-21T02:20:55;97321.63;;;0.06;50.02
39729;BME280;25402;42.004;23.088;2023-11-21T02:23:23;97332.22;;;0.17;49.97
39729;BME280;25402;42.004;23.088;2023-11-21T02:25:54;97338.25;;;0.19;49.87
39729;BME280;25402;42.004;23.088;2023-11-21T02:28:21;97318.97;;;0.06;50.11
39729;BME280;25402;42.004;23.088;2023-11-21T02:30:51;97327.38;;;0.22;50.23
39729;BME280;25402;42.004;23.088;2023-11-21T02:33:21;97335.28;;;0.12;50.09
39729;BME280;25402;42.004;23.088;2023-11-21T02:35:48;97325.47;;;0.13;50.25
39729;BME280;25402;42.004;23.088;2023-11-21T02:38:16;97333.66;;;0.21;49.85
39729;BME280;25402;42.004;23.088;2023-11-21T02:40:45;97329.78;;;0.25;50.03
39729;BME280;25402;42.004;23.088;2023-11-21T02:43:12;97331.00;;;0.21;50.31
39729;BME280;25402;42.004;23.088;2023-11-21T02:45:39;97331.59;;;0.24;49.68
39729;BME280;25402;42.004;23.088;2023-11-21T02:48:07;97333.47;;;0.13;49.47
39729;BME280;25402;42.004;23.088;2023-11-21T02:50:34;97329.56;;;0.17;49.41
39729;BME280;25402;42.004;23.088;2023-11-21T02:53:02;97333.41;;;0.24;49.31
39729;BME280;25402;42.004;23.088;2023-11-21T02:55:31;97331.97;;;0.20;49.72
39729;BME280;25402;42.004;23.088;2023-11-21T02:58:02;97340.78;;;0.20;49.53
39729;BME280;25402;42.004;23.088;2023-11-21T03:00:29;97338.50;;;0.16;49.91
39729;BME280;25402;42.004;23.088;2023-11-21T03:02:56;97335.59;;;0.19;49.69
39729;BME280;25402;42.004;23.088;2023-11-21T03:05:23;97331.03;;;0.10;49.38
39729;BME280;25402;42.004;23.088;2023-11-21T03:07:50;97333.47;;;0.13;49.50
39729;BME280;25402;42.004;23.088;2023-11-21T03:10:17;97336.00;;;0.14;49.42
39729;BME280;25402;42.004;23.088;2023-11-21T03:12:44;97343.50;;;0.09;49.47
39729;BME280;25402;42.004;23.088;2023-11-21T03:15:13;97333.75;;;-0.01;49.14
39729;BME280;25402;42.004;23.088;2023-11-21T03:17:40;97334.19;;;0.04;49.00
39729;BME280;25402;42.004;23.088;2023-11-21T03:20:08;97319.69;;;0.08;48.99
39729;BME280;25402;42.004;23.088;2023-11-21T03:22:36;97317.50;;;0.02;49.12
39729;BME280;25402;42.004;23.088;2023-11-21T03:25:04;97321.53;;;-0.04;48.77
39729;BME280;25402;42.004;23.088;2023-11-21T03:27:31;97307.66;;;-0.19;48.88
39729;BME280;25402;42.004;23.088;2023-11-21T03:29:58;97330.00;;;-0.10;49.36
39729;BME280;25402;42.004;23.088;2023-11-21T03:32:27;97331.34;;;-0.16;49.65
39729;BME280;25402;42.004;23.088;2023-11-21T03:34:55;97341.47;;;-0.10;49.21
39729;BME280;25402;42.004;23.088;2023-11-21T03:37:23;97345.72;;;-0.07;49.79
39729;BME280;25402;42.004;23.088;2023-11-21T03:39:50;97338.63;;;-0.18;50.10
39729;BME280;25402;42.004;23.088;2023-11-21T03:42:17;97336.16;;;-0.10;49.79
39729;BME280;25402;42.004;23.088;2023-11-21T03:44:44;97334.34;;;-0.20;49.36
39729;BME280;25402;42.004;23.088;2023-11-21T03:47:11;97338.81;;;-0.21;49.29
39729;BME280;25402;42.004;23.088;2023-11-21T03:49:40;97317.94;;;-0.36;49.72
39729;BME280;25402;42.004;23.088;2023-11-21T03:52:07;97328.78;;;-0.28;49.67
39729;BME280;25402;42.004;23.088;2023-11-21T03:54:34;97334.13;;;-0.40;49.92
39729;BME280;25402;42.004;23.088;2023-11-21T03:57:02;97334.50;;;-0.33;50.06
39729;BME280;25402;42.004;23.088;2023-11-21T03:59:29;97330.63;;;-0.40;50.20
39729;BME280;25402;42.004;23.088;2023-11-21T04:01:56;97346.66;;;-0.30;50.25
39729;BME280;25402;42.004;23.088;2023-11-21T04:04:23;97353.81;;;-0.31;49.95
39729;BME280;25402;42.004;23.088;2023-11-21T04:06:51;97344.41;;;-0.35;49.62
39729;BME280;25402;42.004;23.088;2023-11-21T04:09:19;97352.63;;;-0.38;49.76
39729;BME280;25402;42.004;23.088;2023-11-21T04:11:46;97354.56;;;-0.40;50.02
39729;BME280;25402;42.004;23.088;2023-11-21T04:14:13;97330.16;;;-0.56;49.92
39729;BME280;25402;42.004;23.088;2023-11-21T04:16:40;97351.66;;;-0.37;50.07
39729;BME280;25402;42.004;23.088;2023-11-21T04:19:08;97348.50;;;-0.31;49.69
39729;BME280;25402;42.004;23.088;2023-11-21T04:21:36;97347.06;;;-0.46;50.06
39729;BME280;25402;42.004;23.088;2023-11-21T04:24:06;97345.13;;;-0.33;49.95
39729;BME280;25402;42.004;23.088;2023-11-21T04:26:33;97341.75;;;-0.35;49.98
39729;BME280;25402;42.004;23.088;2023-11-21T04:29:00;97340.66;;;-0.32;49.84
39729;BME280;25402;42.004;23.088;2023-11-21T04:31:27;97333.78;;;-0.35;50.36
39729;BME280;25402;42.004;23.088;2023-11-21T04:33:54;97313.72;;;-0.39;49.96
39729;BME280;25402;42.004;23.088;2023-11-21T04:36:21;97343.28;;;-0.21;50.29
39729;BME280;25402;42.004;23.088;2023-11-21T04:38:48;97322.41;;;-0.37;50.38
39729;BME280;25402;42.004;23.088;2023-11-21T04:41:17;97333.03;;;-0.26;50.70
39729;BME280;25402;42.004;23.088;2023-11-21T04:43:43;97328.22;;;-0.32;50.52
39729;BME280;25402;42.004;23.088;2023-11-21T04:46:11;97326.75;;;-0.25;50.35
39729;BME280;25402;42.004;23.088;2023-11-21T04:48:38;97328.19;;;-0.21;50.13
39729;BME280;25402;42.004;23.088;2023-11-21T04:51:05;97327.81;;;-0.27;50.35
39729;BME280;25402;42.004;23.088;2023-11-21T04:53:32;97327.50;;;-0.34;50.46
39729;BME280;25402;42.004;23.088;2023-11-21T04:56:00;97345.50;;;-0.37;50.84
39729;BME280;25402;42.004;23.088;2023-11-21T04:58:28;97343.41;;;-0.23;50.09
39729;BME280;25402;42.004;23.088;2023-11-21T05:00:56;97340.31;;;-0.17;50.43
39729;BME280;25402;42.004;23.088;2023-11-21T05:03:23;97345.34;;;-0.14;50.52
39729;BME280;25402;42.004;23.088;2023-11-21T05:05:50;97347.03;;;-0.13;50.40
39729;BME280;25402;42.004;23.088;2023-11-21T05:08:17;97342.34;;;-0.09;50.14
39729;BME280;25402;42.004;23.088;2023-11-21T05:10:46;97341.97;;;-0.16;50.24
39729;BME280;25402;42.004;23.088;2023-11-21T05:13:13;97342.69;;;-0.14;50.30
39729;BME280;25402;42.004;23.088;2023-11-21T05:15:44;97342.81;;;-0.04;49.90
39729;BME280;25402;42.004;23.088;2023-11-21T05:18:11;97347.78;;;-0.11;49.92
39729;BME280;25402;42.004;23.088;2023-11-21T05:20:39;97351.88;;;-0.07;49.64
39729;BME280;25402;42.004;23.088;2023-11-21T05:23:06;97340.28;;;-0.06;49.78
39729;BME280;25402;42.004;23.088;2023-11-21T05:25:33;97337.75;;;-0.07;50.02
39729;BME280;25402;42.004;23.088;2023-11-21T05:28:00;97326.63;;;-0.12;49.95
39729;BME280;25402;42.004;23.088;2023-11-21T05:30:28;97337.75;;;-0.07;49.82
39729;BME280;25402;42.004;23.088;2023-11-21T05:32:56;97336.88;;;-0.08;49.66
39729;BME280;25402;42.004;23.088;2023-11-21T05:35:23;97349.25;;;-0.18;50.10
39729;BME280;25402;42.004;23.088;2023-11-21T05:37:52;97341.97;;;-0.04;50.13
39729;BME280;25402;42.004;23.088;2023-11-21T05:40:19;97337.25;;;-0.01;50.35
39729;BME280;25402;42.004;23.088;2023-11-21T05:42:47;97342.81;;;-0.04;50.70
39729;BME280;25402;42.004;23.088;2023-11-21T05:45:14;97344.63;;;-0.04;50.72
39729;BME280;25402;42.004;23.088;2023-11-21T05:47:43;97350.88;;;0.06;51.03
39729;BME280;25402;42.004;23.088;2023-11-21T05:50:14;97340.59;;;0.12;50.89
39729;BME280;25402;42.004;23.088;2023-11-21T05:52:42;97339.22;;;0.18;50.83
39729;BME280;25402;42.004;23.088;2023-11-21T05:55:10;97352.50;;;0.29;50.84
39729;BME280;25402;42.004;23.088;2023-11-21T05:57:41;97335.31;;;0.33;50.08
39729;BME280;25402;42.004;23.088;2023-11-21T06:00:14;97337.28;;;0.20;50.58
39729;BME280;25402;42.004;23.088;2023-11-21T06:02:45;97338.19;;;0.09;50.93
39729;BME280;25402;42.004;23.088;2023-11-21T06:05:14;97344.41;;;0.31;51.62
39729;BME280;25402;42.004;23.088;2023-11-21T06:07:43;97339.94;;;0.31;51.48
39729;BME280;25402;42.004;23.088;2023-11-21T06:10:11;97344.59;;;0.39;51.17
39729;BME280;25402;42.004;23.088;2023-11-21T06:12:40;97352.66;;;0.48;51.13
39729;BME280;25402;42.004;23.088;2023-11-21T06:15:09;97342.72;;;0.29;51.24
39729;BME280;25402;42.004;23.088;2023-11-21T06:17:40;97353.72;;;0.57;51.27
39729;BME280;25402;42.004;23.088;2023-11-21T06:20:09;97364.53;;;0.76;50.62
39729;BME280;25402;42.004;23.088;2023-11-21T06:22:42;97363.50;;;0.88;50.25
39729;BME280;25402;42.004;23.088;2023-11-21T06:25:11;97336.66;;;0.80;50.08
39729;BME280;25402;42.004;23.088;2023-11-21T06:27:40;97367.25;;;1.07;50.27
39729;BME280;25402;42.004;23.088;2023-11-21T06:30:09;97362.69;;;1.18;49.75
39729;BME280;25402;42.004;23.088;2023-11-21T06:32:38;97363.28;;;1.22;49.57
39729;BME280;25402;42.004;23.088;2023-11-21T06:35:10;97360.78;;;1.30;49.01
39729;BME280;25402;42.004;23.088;2023-11-21T06:37:44;97361.97;;;1.37;48.96
39729;BME280;25402;42.004;23.088;2023-11-21T06:40:17;97355.22;;;1.43;48.87
39729;BME280;25402;42.004;23.088;2023-11-21T06:42:48;97361.03;;;1.48;48.63
39729;BME280;25402;42.004;23.088;2023-11-21T06:45:29;97357.00;;;1.63;48.26
39729;BME280;25402;42.004;23.088;2023-11-21T06:47:57;97359.41;;;1.66;48.30
39729;BME280;25402;42.004;23.088;2023-11-21T06:50:24;97359.22;;;1.79;48.44
39729;BME280;25402;42.004;23.088;2023-11-21T06:52:53;97358.69;;;1.94;48.60
39729;BME280;25402;42.004;23.088;2023-11-21T06:55:21;97347.31;;;1.92;48.79
39729;BME280;25402;42.004;23.088;2023-11-21T06:57:49;97358.63;;;2.15;48.08
39729;BME280;25402;42.004;23.088;2023-11-21T07:00:17;97350.19;;;2.20;47.95
39729;BME280;25402;42.004;23.088;2023-11-21T07:02:44;97340.34;;;2.11;47.65
39729;BME280;25402;42.004;23.088;2023-11-21T07:05:11;97348.66;;;2.27;47.42
39729;BME280;25402;42.004;23.088;2023-11-21T07:07:40;97351.31;;;2.36;46.99
39729;BME280;25402;42.004;23.088;2023-11-21T07:10:09;97347.81;;;2.46;46.85
39729;BME280;25402;42.004;23.088;2023-11-21T07:12:36;97352.06;;;2.48;46.79
39729;BME280;25402;42.004;23.088;2023-11-21T07:15:07;97356.97;;;2.62;47.01
39729;BME280;25402;42.004;23.088;2023-11-21T07:17:36;97349.66;;;2.74;46.87
39729;BME280;25402;42.004;23.088;2023-11-21T07:20:03;97348.38;;;2.88;46.61
39729;BME280;25402;42.004;23.088;2023-11-21T07:22:32;97362.28;;;3.01;46.41
39729;BME280;25402;42.004;23.088;2023-11-21T07:24:59;97370.16;;;3.12;46.32
39729;BME280;25402;42.004;23.088;2023-11-21T07:27:27;97381.53;;;3.24;46.47
39729;BME280;25402;42.004;23.088;2023-11-21T07:29:54;97382.22;;;3.35;46.21
39729;BME280;25402;42.004;23.088;2023-11-21T07:32:21;97372.03;;;3.49;46.04
39729;BME280;25402;42.004;23.088;2023-11-21T07:34:48;97382.09;;;3.74;45.58
39729;BME280;25402;42.004;23.088;2023-11-21T07:37:15;97374.53;;;3.97;45.28
39729;BME280;25402;42.004;23.088;2023-11-21T07:39:43;97379.94;;;4.14;45.04
39729;BME280;25402;42.004;23.088;2023-11-21T07:42:10;97357.72;;;4.04;45.07
39729;BME280;25402;42.004;23.088;2023-11-21T07:44:38;97384.34;;;4.33;44.69
39729;BME280;25402;42.004;23.088;2023-11-21T07:47:06;97376.88;;;4.27;44.69
39729;BME280;25402;42.004;23.088;2023-11-21T07:49:33;97381.44;;;4.44;44.33
39729;BME280;25402;42.004;23.088;2023-11-21T07:52:01;97382.91;;;4.39;44.34
39729;BME280;25402;42.004;23.088;2023-11-21T07:54:30;97379.59;;;4.45;44.35
39729;BME280;25402;42.004;23.088;2023-11-21T07:57:01;97372.50;;;4.54;44.39
39729;BME280;25402;42.004;23.088;2023-11-21T07:59:30;97358.41;;;4.34;44.36
39729;BME280;25402;42.004;23.088;2023-11-21T08:01:58;97373.41;;;4.62;44.91
39729;BME280;25402;42.004;23.088;2023-11-21T08:04:25;97376.06;;;4.72;44.90
39729;BME280;25402;42.004;23.088;2023-11-21T08:06:53;97379.31;;;5.19;54.63
39729;BME280;25402;42.004;23.088;2023-11-21T08:09:20;97359.91;;;6.19;52.46
39729;BME280;25402;42.004;23.088;2023-11-21T08:11:49;97359.22;;;6.75;44.83
39729;BME280;25402;42.004;23.088;2023-11-21T08:14:17;97376.69;;;6.71;42.35
39729;BME280;25402;42.004;23.088;2023-11-21T08:16:51;97371.78;;;6.58;41.97
39729;BME280;25402;42.004;23.088;2023-11-21T08:19:24;97375.66;;;6.56;41.95
39729;BME280;25402;42.004;23.088;2023-11-21T08:21:52;97384.34;;;6.42;41.92
39729;BME280;25402;42.004;23.088;2023-11-21T08:24:20;97378.09;;;6.33;42.00
39729;BME280;25402;42.004;23.088;2023-11-21T08:26:48;97380.78;;;6.33;41.99
39729;BME280;25402;42.004;23.088;2023-11-21T08:29:15;97373.88;;;6.31;41.94
39729;BME280;25402;42.004;23.088;2023-11-21T08:31:44;97380.94;;;6.32;42.18
39729;BME280;25402;42.004;23.088;2023-11-21T08:34:12;97368.88;;;6.28;42.14
39729;BME280;25402;42.004;23.088;2023-11-21T08:36:46;97375.63;;;6.48;41.87
39729;BME280;25402;42.004;23.088;2023-11-21T08:39:14;97378.25;;;6.32;41.80
39729;BME280;25402;42.004;23.088;2023-11-21T08:41:42;97369.03;;;6.26;41.72
39729;BME280;25402;42.004;23.088;2023-11-21T08:44:09;97371.03;;;6.32;41.88
39729;BME280;25402;42.004;23.088;2023-11-21T08:46:36;97367.13;;;6.10;42.11
39729;BME280;25402;42.004;23.088;2023-11-21T08:49:06;97357.69;;;6.06;41.92
39729;BME280;25402;42.004;23.088;2023-11-21T08:51:33;97339.91;;;6.05;42.06
39729;BME280;25402;42.004;23.088;2023-11-21T08:54:05;97353.38;;;6.13;42.03
39729;BME280;25402;42.004;23.088;2023-11-21T08:56:33;97346.28;;;6.04;42.08
39729;BME280;25402;42.004;23.088;2023-11-21T08:59:00;97340.22;;;6.02;42.33
39729;BME280;25402;42.004;23.088;2023-11-21T09:01:34;97344.59;;;6.03;42.19
39729;BME280;25402;42.004;23.088;2023-11-21T09:04:01;97331.47;;;6.00;42.31
39729;BME280;25402;42.004;23.088;2023-11-21T09:06:28;97330.53;;;6.09;42.51
39729;BME280;25402;42.004;23.088;2023-11-21T09:08:56;97303.50;;;6.11;42.47
39729;BME280;25402;42.004;23.088;2023-11-21T09:11:25;97280.66;;;6.15;42.31
39729;BME280;25402;42.004;23.088;2023-11-21T09:13:59;97262.69;;;6.15;42.33
39729;BME280;25402;42.004;23.088;2023-11-21T09:16:26;97259.38;;;6.13;42.54
39729;BME280;25402;42.004;23.088;2023-11-21T09:18:53;97264.75;;;6.21;42.51
39729;BME280;25402;42.004;23.088;2023-11-21T09:21:20;97267.25;;;6.31;42.50
39729;BME280;25402;42.004;23.088;2023-11-21T09:23:49;97242.91;;;6.33;42.39
39729;BME280;25402;42.004;23.088;2023-11-21T09:26:16;97241.09;;;6.41;42.69
39729;BME280;25402;42.004;23.088;2023-11-21T09:28:45;97236.56;;;6.58;42.42
39729;BME280;25402;42.004;23.088;2023-11-21T09:31:13;97230.00;;;6.69;41.90
39729;BME280;25402;42.004;23.088;2023-11-21T09:33:41;97214.22;;;6.74;41.82
39729;BME280;25402;42.004;23.088;2023-11-21T09:36:11;97216.72;;;6.91;41.46
39729;BME280;25402;42.004;23.088;2023-11-21T09:38:39;97209.44;;;7.00;41.03
39729;BME280;25402;42.004;23.088;2023-11-21T09:41:19;97203.44;;;7.06;40.97
39729;BME280;25402;42.004;23.088;2023-11-21T09:46:28;97172.31;;;7.04;40.96
39729;BME280;25402;42.004;23.088;2023-11-21T09:49:00;97158.84;;;7.04;40.93
39729;BME280;25402;42.004;23.088;2023-11-21T09:51:31;97136.03;;;6.83;41.03
39729;BME280;25402;42.004;23.088;2023-11-21T09:54:03;97145.75;;;7.01;41.01
39729;BME280;25402;42.004;23.088;2023-11-21T09:56:34;97154.31;;;6.96;41.28
39729;BME280;25402;42.004;23.088;2023-11-21T09:59:01;97140.25;;;6.86;41.41
39729;BME280;25402;42.004;23.088;2023-11-21T10:01:36;97158.53;;;6.99;41.32
39729;BME280;25402;42.004;23.088;2023-11-21T10:04:04;97134.16;;;7.00;40.98
39729;BME280;25402;42.004;23.088;2023-11-21T10:06:39;97138.53;;;6.93;40.93
39729;BME280;25402;42.004;23.088;2023-11-21T10:09:08;97133.69;;;6.80;40.92
39729;BME280;25402;42.004;23.088;2023-11-21T10:11:40;97131.00;;;6.80;40.88
39729;BME280;25402;42.004;23.088;2023-11-21T10:14:09;97133.72;;;6.72;41.23
39729;BME280;25402;42.004;23.088;2023-11-21T10:16:41;97128.03;;;6.67;41.56
39729;BME280;25402;42.004;23.088;2023-11-21T10:19:10;97128.69;;;6.61;41.71
39729;BME280;25402;42.004;23.088;2023-11-21T10:21:41;97133.44;;;6.51;42.11
39729;BME280;25402;42.004;23.088;2023-11-21T10:24:08;97129.44;;;6.22;42.70
39729;BME280;25402;42.004;23.088;2023-11-21T10:26:36;97131.94;;;6.08;43.24
39729;BME280;25402;42.004;23.088;2023-11-21T10:29:04;97119.19;;;5.94;43.53
39729;BME280;25402;42.004;23.088;2023-11-21T10:31:33;97124.03;;;5.82;43.99
39729;BME280;25402;42.004;23.088;2023-11-21T10:34:16;97115.03;;;5.41;45.19
39729;BME280;25402;42.004;23.088;2023-11-21T10:36:45;97111.47;;;5.24;45.64
39729;BME280;25402;42.004;23.088;2023-11-21T10:39:14;97112.53;;;5.39;45.72
39729;BME280;25402;42.004;23.088;2023-11-21T10:41:45;97113.88;;;5.51;45.55
39729;BME280;25402;42.004;23.088;2023-11-21T10:44:14;97117.63;;;5.75;45.97
39729;BME280;25402;42.004;23.088;2023-11-21T10:46:46;97098.34;;;5.87;45.63
39729;BME280;25402;42.004;23.088;2023-11-21T10:49:18;97115.84;;;6.24;45.32
39729;BME280;25402;42.004;23.088;2023-11-21T10:51:45;97107.44;;;6.43;44.78
39729;BME280;25402;42.004;23.088;2023-11-21T10:54:19;97105.00;;;6.73;44.46
39729;BME280;25402;42.004;23.088;2023-11-21T10:56:51;97088.78;;;6.97;43.90
39729;BME280;25402;42.004;23.088;2023-11-21T10:59:20;97084.38;;;7.12;43.15
39729;BME280;25402;42.004;23.088;2023-11-21T11:01:52;97070.72;;;7.22;42.89
39729;BME280;25402;42.004;23.088;2023-11-21T11:04:24;97069.47;;;7.33;42.36
39729;BME280;25402;42.004;23.088;2023-11-21T11:06:54;97056.19;;;7.31;42.03
39729;BME280;25402;42.004;23.088;2023-11-21T11:09:22;97055.25;;;7.24;41.47
39729;BME280;25402;42.004;23.088;2023-11-21T11:11:49;97052.44;;;7.40;41.35
39729;BME280;25402;42.004;23.088;2023-11-21T11:14:16;97014.69;;;7.25;41.11
39729;BME280;25402;42.004;23.088;2023-11-21T11:16:45;97028.97;;;7.72;40.70
39729;BME280;25402;42.004;23.088;2023-11-21T11:19:12;97045.25;;;8.01;40.42
39729;BME280;25402;42.004;23.088;2023-11-21T11:22:03;97036.06;;;8.33;40.10
39729;BME280;25402;42.004;23.088;2023-11-21T11:24:45;97029.84;;;8.62;39.71
39729;BME280;25402;42.004;23.088;2023-11-21T11:27:23;97031.88;;;8.89;39.50
39729;BME280;25402;42.004;23.088;2023-11-21T11:30:01;97025.97;;;9.00;39.31
39729;BME280;25402;42.004;23.088;2023-11-21T11:32:40;96997.03;;;9.09;39.38
39729;BME280;25402;42.004;23.088;2023-11-21T11:35:19;97024.09;;;9.30;39.15
39729;BME280;25402;42.004;23.088;2023-11-21T11:37:52;97021.00;;;9.33;39.51
39729;BME280;25402;42.004;23.088;2023-11-21T11:40:22;97014.16;;;9.52;39.37
39729;BME280;25402;42.004;23.088;2023-11-21T11:42:57;97012.75;;;9.56;39.40
39729;BME280;25402;42.004;23.088;2023-11-21T11:45:32;97005.69;;;9.55;39.38
39729;BME280;25402;42.004;23.088;2023-11-21T11:48:00;96992.75;;;9.51;39.14
39729;BME280;25402;42.004;23.088;2023-11-21T11:50:29;96999.94;;;9.65;38.75
39729;BME280;25402;42.004;23.088;2023-11-21T11:53:12;96990.88;;;9.72;38.11
39729;BME280;25402;42.004;23.088;2023-11-21T11:55:40;96970.38;;;9.57;38.02
39729;BME280;25402;42.004;23.088;2023-11-21T11:58:08;96987.72;;;9.69;38.50
39729;BME280;25402;42.004;23.088;2023-11-21T12:00:36;96967.00;;;9.76;38.23
39729;BME280;25402;42.004;23.088;2023-11-21T12:03:06;96964.38;;;9.83;38.12
39729;BME280;25402;42.004;23.088;2023-11-21T12:05:35;96960.63;;;9.84;38.21
39729;BME280;25402;42.004;23.088;2023-11-21T12:08:07;96966.13;;;9.97;37.96
39729;BME280;25402;42.004;23.088;2023-11-21T12:10:36;96949.06;;;9.90;38.05
39729;BME280;25402;42.004;23.088;2023-11-21T12:13:06;96957.44;;;10.01;38.64
39729;BME280;25402;42.004;23.088;2023-11-21T12:15:34;96965.81;;;10.06;38.59
39729;BME280;25402;42.004;23.088;2023-11-21T12:18:02;96961.63;;;10.04;38.36
39729;BME280;25402;42.004;23.088;2023-11-21T12:20:30;96962.47;;;10.04;38.49
39729;BME280;25402;42.004;23.088;2023-11-21T12:23:05;96937.22;;;9.91;38.73
39729;BME280;25402;42.004;23.088;2023-11-21T12:25:34;96953.28;;;9.99;38.63
39729;BME280;25402;42.004;23.088;2023-11-21T12:28:02;96923.66;;;9.84;39.07
39729;BME280;25402;42.004;23.088;2023-11-21T12:30:30;96941.19;;;9.95;38.97
39729;BME280;25402;42.004;23.088;2023-11-21T12:32:59;96938.09;;;9.98;38.97
39729;BME280;25402;42.004;23.088;2023-11-21T12:35:28;96929.50;;;9.88;38.87
39729;BME280;25402;42.004;23.088;2023-11-21T12:37:56;96943.88;;;9.95;38.70
39729;BME280;25402;42.004;23.088;2023-11-21T12:40:26;96938.47;;;9.95;38.89
39729;BME280;25402;42.004;23.088;2023-11-21T12:42:56;96934.94;;;9.94;38.90
39729;BME280;25402;42.004;23.088;2023-11-21T12:45:25;96925.78;;;9.89;38.79
39729;BME280;25402;42.004;23.088;2023-11-21T12:47:55;96913.59;;;9.71;38.81
39729;BME280;25402;42.004;23.088;2023-11-21T12:50:26;96918.25;;;9.84;38.91
39729;BME280;25402;42.004;23.088;2023-11-21T12:52:59;96914.50;;;9.85;38.77
39729;BME280;25402;42.004;23.088;2023-11-21T12:55:30;96919.28;;;9.83;38.76
39729;BME280;25402;42.004;23.088;2023-11-21T12:57:57;96907.78;;;9.75;38.91
39729;BME280;25402;42.004;23.088;2023-11-21T13:00:33;96908.19;;;9.71;39.01
39729;BME280;25402;42.004;23.088;2023-11-21T13:03:03;96885.78;;;9.78;39.28
39729;BME280;25402;42.004;23.088;2023-11-21T13:05:32;96892.47;;;9.82;39.16
39729;BME280;25402;42.004;23.088;2023-11-21T13:08:02;96890.16;;;9.79;39.25